createdAt,value
2018-09-20T00:00:08.573Z,0
2018-09-20T00:01:18.660Z,0
2018-09-20T00:02:28.501Z,0
2018-09-20T00:03:38.312Z,0
2018-09-20T00:04:48.393Z,0
2018-09-20T00:05:58.458Z,0
2018-09-20T00:07:08.569Z,0
2018-09-20T00:08:18.644Z,0
2018-09-20T00:09:28.467Z,0
2018-09-20T00:10:38.544Z,0
2018-09-20T00:11:48.632Z,0
2018-09-20T00:12:58.703Z,0
2018-09-20T00:14:08.777Z,0
2018-09-20T00:15:18.841Z,0
2018-09-20T00:16:28.911Z,0
2018-09-20T00:17:38.997Z,0
2018-09-20T00:18:49.081Z,0
2018-09-20T00:19:58.890Z,0
2018-09-20T00:21:08.978Z,0
2018-09-20T00:22:19.066Z,0
2018-09-20T00:23:29.129Z,0
2018-09-20T00:24:39.204Z,0
2018-09-20T00:25:49.376Z,0
2018-09-20T00:26:59.191Z,0
2018-09-20T00:28:09.272Z,0
2018-09-20T00:29:19.332Z,0
2018-09-20T00:30:29.405Z,0
2018-09-20T00:31:39.267Z,0
2018-09-20T00:32:49.083Z,0
2018-09-20T00:33:59.173Z,0
2018-09-20T00:35:09.241Z,0
2018-09-20T00:36:19.306Z,0
2018-09-20T00:37:29.440Z,0
2018-09-20T00:38:39.503Z,0
2018-09-20T00:39:49.589Z,0
2018-09-20T00:40:59.400Z,0
2018-09-20T00:42:09.635Z,0
2018-09-20T00:43:19.770Z,0
2018-09-20T00:44:29.840Z,0
2018-09-20T00:45:39.654Z,0
2018-09-20T00:46:49.732Z,0
2018-09-20T00:47:59.808Z,0
2018-09-20T00:49:11.584Z,0
2018-09-20T00:50:21.663Z,0
2018-09-20T00:51:31.742Z,0
2018-09-20T00:52:41.821Z,0
2018-09-20T00:53:51.895Z,0
2018-09-20T00:55:02.025Z,0
2018-09-20T00:56:12.205Z,0
2018-09-20T00:57:22.288Z,0
2018-09-20T00:58:32.381Z,0
2018-09-20T00:59:42.206Z,0
2018-09-20T01:00:52.332Z,0
2018-09-20T01:02:02.403Z,0
2018-09-20T01:03:12.457Z,0
2018-09-20T01:04:22.291Z,0
2018-09-20T01:05:31.850Z,0
2018-09-20T01:06:41.646Z,0
2018-09-20T01:07:51.718Z,0
2018-09-20T01:09:01.528Z,0
2018-09-20T01:10:11.593Z,0
2018-09-20T01:11:21.136Z,0
2018-09-20T01:12:30.728Z,0
2018-09-20T01:13:40.812Z,0
2018-09-20T01:14:50.622Z,0
2018-09-20T01:16:00.680Z,0
2018-09-20T01:17:10.758Z,0
2018-09-20T01:18:20.886Z,0
2018-09-20T01:19:30.945Z,0
2018-09-20T01:20:41.021Z,0
2018-09-20T01:21:51.093Z,0
2018-09-20T01:23:01.163Z,0
2018-09-20T01:24:11.280Z,0
2018-09-20T01:25:21.381Z,0
2018-09-20T01:26:31.485Z,0
2018-09-20T01:27:41.303Z,0
2018-09-20T01:28:51.409Z,0
2018-09-20T01:30:03.200Z,0
2018-09-20T01:31:13.268Z,0
2018-09-20T01:32:22.820Z,0
2018-09-20T01:33:32.904Z,0
2018-09-20T01:34:42.715Z,0
2018-09-20T01:35:52.584Z,0
2018-09-20T01:37:02.419Z,0
2018-09-20T01:38:12.221Z,0
2018-09-20T01:39:22.016Z,0
2018-09-20T01:40:32.109Z,0
2018-09-20T01:41:41.976Z,0
2018-09-20T01:42:52.052Z,0
2018-09-20T01:44:02.145Z,0
2018-09-20T01:45:11.972Z,0
2018-09-20T01:46:21.783Z,0
2018-09-20T01:47:31.900Z,0
2018-09-20T01:48:41.971Z,0
2018-09-20T01:49:52.060Z,0
2018-09-20T01:51:02.130Z,0
2018-09-20T01:52:11.952Z,0
2018-09-20T01:53:22.078Z,0
2018-09-20T01:54:32.167Z,0
2018-09-20T01:55:42.252Z,0
2018-09-20T01:56:52.333Z,0
2018-09-20T01:58:02.402Z,0
2018-09-20T01:59:12.678Z,0
2018-09-20T02:00:22.754Z,0
2018-09-20T02:01:32.831Z,0
2018-09-20T02:02:42.899Z,0
2018-09-20T02:03:52.980Z,0
2018-09-20T02:05:02.836Z,0
2018-09-20T02:06:12.898Z,0
2018-09-20T02:07:22.983Z,0
2018-09-20T02:08:33.082Z,0
2018-09-20T02:09:43.158Z,0
2018-09-20T02:10:53.287Z,0
2018-09-20T02:12:05.020Z,0
2018-09-20T02:13:15.103Z,0
2018-09-20T02:14:25.414Z,0
2018-09-20T02:15:35.235Z,0
2018-09-20T02:16:45.310Z,0
2018-09-20T02:17:55.133Z,0
2018-09-20T02:19:04.938Z,0
2018-09-20T02:20:14.998Z,0
2018-09-20T02:21:25.062Z,0
2018-09-20T02:22:34.873Z,0
2018-09-20T02:23:44.452Z,0
2018-09-20T02:24:54.520Z,0
2018-09-20T02:26:04.626Z,0
2018-09-20T02:27:14.697Z,0
2018-09-20T02:28:24.820Z,0
2018-09-20T02:29:34.896Z,0
2018-09-20T02:30:44.992Z,0
2018-09-20T02:31:55.081Z,0
2018-09-20T02:33:05.152Z,0
2018-09-20T02:34:15.229Z,0
2018-09-20T02:35:24.806Z,0
2018-09-20T02:36:34.884Z,0
2018-09-20T02:37:44.700Z,0
2018-09-20T02:38:54.777Z,0
2018-09-20T02:40:05.313Z,0
2018-09-20T02:41:14.875Z,0
2018-09-20T02:42:24.693Z,0
2018-09-20T02:43:34.763Z,0
2018-09-20T02:44:44.579Z,0
2018-09-20T02:45:54.661Z,0
2018-09-20T02:47:05.376Z,0
2018-09-20T02:48:14.927Z,0
2018-09-20T02:49:25.054Z,0
2018-09-20T02:50:34.876Z,0
2018-09-20T02:51:44.990Z,0
2018-09-20T02:52:54.788Z,0
2018-09-20T02:54:04.614Z,0
2018-09-20T02:55:14.429Z,0
2018-09-20T02:56:24.249Z,0
2018-09-20T02:57:34.332Z,0
2018-09-20T02:58:44.127Z,0
2018-09-20T02:59:54.231Z,0
2018-09-20T03:01:06.110Z,0
2018-09-20T03:02:16.201Z,0
2018-09-20T03:35:22.386Z,0
2018-09-20T03:36:32.251Z,0
2018-09-20T03:37:42.321Z,0
2018-09-20T03:38:52.124Z,0
2018-09-20T03:40:03.520Z,0
2018-09-20T03:41:13.376Z,0
2018-09-20T03:42:23.173Z,0
2018-09-20T03:43:33.249Z,0
2018-09-20T03:44:43.328Z,0
2018-09-20T03:45:53.220Z,0
2018-09-20T03:47:03.397Z,0
2018-09-20T03:48:13.479Z,0
2018-09-20T03:49:23.554Z,0
2018-09-20T03:50:33.647Z,0
2018-09-20T03:51:43.738Z,0
2018-09-20T03:52:53.594Z,0
2018-09-20T03:54:03.690Z,0
2018-09-20T03:55:13.746Z,0
2018-09-20T03:56:23.818Z,0
2018-09-20T03:57:33.889Z,0
2018-09-20T03:58:44.034Z,0
2018-09-20T03:59:54.122Z,0
2018-09-20T04:01:04.193Z,0
2018-09-20T04:02:14.023Z,0
2018-09-20T04:03:24.108Z,0
2018-09-20T04:04:34.222Z,0
2018-09-20T04:05:44.040Z,0
2018-09-20T04:06:54.125Z,0
2018-09-20T04:08:04.227Z,0
2018-09-20T04:09:14.302Z,0
2018-09-20T04:10:24.489Z,0
2018-09-20T04:11:34.589Z,0
2018-09-20T04:12:44.683Z,0
2018-09-20T04:13:54.755Z,0
2018-09-20T04:15:04.873Z,0
2018-09-20T04:16:14.724Z,0
2018-09-20T04:17:24.792Z,0
2018-09-20T04:18:34.876Z,0
2018-09-20T04:19:44.948Z,0
2018-09-20T04:20:55.023Z,0
2018-09-20T04:22:05.144Z,0
2018-09-20T04:23:15.229Z,0
2018-09-20T04:24:25.289Z,0
2018-09-20T04:25:35.366Z,0
2018-09-20T04:26:45.432Z,0
2018-09-20T04:27:55.640Z,0
2018-09-20T04:29:05.733Z,0
2018-09-20T04:30:15.805Z,0
2018-09-20T04:31:25.620Z,0
2018-09-20T04:32:35.710Z,0
2018-09-20T04:33:45.634Z,0
2018-09-20T04:34:55.222Z,0
2018-09-20T04:36:07.650Z,0
2018-09-20T04:37:17.471Z,5
2018-09-20T04:38:27.526Z,5
2018-09-20T04:39:37.771Z,5
2018-09-20T04:40:47.847Z,5
2018-09-20T04:41:57.659Z,5
2018-09-20T04:43:07.214Z,5
2018-09-20T04:44:17.278Z,10
2018-09-20T04:45:27.372Z,10
2018-09-20T04:46:37.440Z,10
2018-09-20T04:47:47.266Z,10
2018-09-20T04:48:57.345Z,10
2018-09-20T04:50:07.510Z,15
2018-09-20T04:51:17.651Z,15
2018-09-20T04:52:27.203Z,15
2018-09-20T04:53:37.505Z,15
2018-09-20T04:54:47.324Z,20
2018-09-20T04:55:57.411Z,20
2018-09-20T04:57:07.386Z,20
2018-09-20T04:58:17.451Z,20
2018-09-20T04:59:27.267Z,25
2018-09-20T05:00:37.362Z,25
2018-09-20T05:01:47.233Z,25
2018-09-20T05:02:57.306Z,30
2018-09-20T05:04:07.379Z,30
2018-09-20T05:05:17.219Z,30
2018-09-20T05:06:27.300Z,30
2018-09-20T05:07:37.373Z,35
2018-09-20T05:08:47.178Z,35
2018-09-20T05:09:57.104Z,35
2018-09-20T05:11:07.557Z,40
2018-09-20T05:12:17.639Z,40
2018-09-20T05:13:27.823Z,40
2018-09-20T05:14:37.370Z,40
2018-09-20T05:15:47.183Z,45
2018-09-20T05:16:57.247Z,45
2018-09-20T05:18:07.323Z,45
2018-09-20T05:19:17.448Z,45
2018-09-20T05:20:27.817Z,50
2018-09-20T05:21:37.905Z,50
2018-09-20T05:22:47.968Z,50
2018-09-20T05:23:58.045Z,55
2018-09-20T05:25:07.904Z,50
2018-09-20T05:26:17.977Z,50
2018-09-20T05:27:28.053Z,55
2018-09-20T05:28:38.142Z,55
2018-09-20T05:29:48.219Z,55
2018-09-20T05:30:58.336Z,60
2018-09-20T05:32:08.513Z,65
2018-09-20T05:33:18.829Z,65
2018-09-20T05:34:28.972Z,65
2018-09-20T05:35:39.600Z,60
2018-09-20T05:36:49.691Z,65
2018-09-20T05:37:59.760Z,65
2018-09-20T05:39:10.273Z,65
2018-09-20T05:40:20.103Z,65
2018-09-20T05:41:30.231Z,65
2018-09-20T05:42:40.301Z,70
2018-09-20T05:43:50.529Z,70
2018-09-20T05:45:00.446Z,70
2018-09-20T05:46:10.510Z,70
2018-09-20T05:47:20.584Z,75
2018-09-20T05:48:30.411Z,75
2018-09-20T05:49:40.501Z,75
2018-09-20T05:50:50.654Z,75
2018-09-20T05:52:01.292Z,75
2018-09-20T05:53:11.459Z,80
2018-09-20T05:54:21.527Z,80
2018-09-20T05:55:31.598Z,80
2018-09-20T05:56:41.738Z,80
2018-09-20T05:57:51.827Z,85
2018-09-20T05:59:01.406Z,85
2018-09-20T06:00:11.500Z,85
2018-09-20T06:01:21.585Z,85
2018-09-20T06:02:31.651Z,85
2018-09-20T06:03:41.721Z,90
2018-09-20T06:04:51.522Z,90
2018-09-20T06:06:02.614Z,90
2018-09-20T06:07:12.958Z,90
2018-09-20T06:08:23.055Z,95
2018-09-20T06:09:32.859Z,95
2018-09-20T06:10:42.937Z,95
2018-09-20T06:11:52.769Z,95
2018-09-20T06:13:02.854Z,95
2018-09-20T06:14:12.940Z,100
2018-09-20T06:15:23.034Z,100
2018-09-20T06:16:33.108Z,100
2018-09-20T06:17:43.173Z,100
2018-09-20T06:18:53.249Z,100
2018-09-20T06:20:05.128Z,100
2018-09-20T06:21:15.209Z,100
2018-09-20T06:22:25.030Z,105
2018-09-20T06:23:35.110Z,105
2018-09-20T06:24:45.179Z,105
2018-09-20T06:25:55.243Z,105
2018-09-20T06:27:06.130Z,105
2018-09-20T06:28:15.960Z,105
2018-09-20T06:29:26.056Z,105
2018-09-20T06:30:36.134Z,105
2018-09-20T06:31:46.272Z,110
2018-09-20T06:32:56.368Z,110
2018-09-20T06:34:06.445Z,110
2018-09-20T06:35:16.531Z,110
2018-09-20T06:36:26.341Z,110
2018-09-20T06:37:36.474Z,110
2018-09-20T06:38:46.334Z,110
2018-09-20T06:39:56.662Z,110
2018-09-20T06:41:06.531Z,115
2018-09-20T06:42:16.662Z,115
2018-09-20T06:43:26.807Z,115
2018-09-20T06:44:36.909Z,115
2018-09-20T06:45:46.985Z,115
2018-09-20T06:46:57.062Z,115
2018-09-20T06:48:08.014Z,115
2018-09-20T06:49:18.142Z,115
2018-09-20T06:50:28.577Z,115
2018-09-20T06:51:38.664Z,120
2018-09-20T06:52:48.476Z,120
2018-09-20T06:53:58.289Z,120
2018-09-20T06:55:08.415Z,120
2018-09-20T06:56:18.518Z,120
2018-09-20T06:57:28.597Z,120
2018-09-20T06:58:38.435Z,120
2018-09-20T06:59:48.526Z,120
2018-09-20T07:00:58.588Z,120
2018-09-20T07:02:08.666Z,120
2018-09-20T07:03:19.160Z,125
2018-09-20T07:04:29.295Z,125
2018-09-20T07:05:39.386Z,125
2018-09-20T07:06:49.589Z,125
2018-09-20T07:07:59.451Z,125
2018-09-20T07:09:09.521Z,125
2018-09-20T07:10:19.578Z,125
2018-09-20T07:11:29.403Z,125
2018-09-20T07:12:39.532Z,125
2018-09-20T07:13:49.986Z,125
2018-09-20T07:15:02.424Z,125
2018-09-20T07:16:12.242Z,125
2018-09-20T07:17:22.317Z,125
2018-09-20T07:18:32.447Z,125
2018-09-20T07:19:42.272Z,125
2018-09-20T07:20:52.105Z,125
2018-09-20T07:22:02.182Z,125
2018-09-20T07:23:12.351Z,130
2018-09-20T07:24:22.494Z,130
2018-09-20T07:25:32.968Z,130
2018-09-20T07:26:43.219Z,130
2018-09-20T07:27:53.088Z,130
2018-09-20T07:29:03.207Z,130
2018-09-20T07:30:13.304Z,135
2018-09-20T07:31:23.386Z,135
2018-09-20T07:32:33.527Z,135
2018-09-20T07:33:43.617Z,140
2018-09-20T07:34:53.454Z,135
2018-09-20T07:36:03.462Z,135
2018-09-20T07:37:13.276Z,135
2018-09-20T07:38:23.089Z,135
2018-09-20T07:39:32.897Z,135
2018-09-20T07:40:42.979Z,135
2018-09-20T07:41:53.066Z,135
2018-09-20T07:43:03.586Z,140
2018-09-20T07:44:13.398Z,140
2018-09-20T07:45:23.479Z,140
2018-09-20T07:46:33.291Z,140
2018-09-20T07:47:44.062Z,140
2018-09-20T07:48:54.131Z,140
2018-09-20T07:50:04.215Z,140
2018-09-20T07:51:14.359Z,140
2018-09-20T07:52:24.167Z,145
2018-09-20T07:53:34.321Z,145
2018-09-20T07:54:44.438Z,145
2018-09-20T07:55:54.531Z,145
2018-09-20T07:57:04.604Z,145
2018-09-20T07:58:14.692Z,145
2018-09-20T07:59:24.777Z,145
2018-09-20T08:00:34.334Z,145
2018-09-20T08:01:44.269Z,150
2018-09-20T08:02:54.360Z,150
2018-09-20T08:04:04.188Z,150
2018-09-20T08:05:14.278Z,150
2018-09-20T08:06:24.408Z,150
2018-09-20T08:07:34.491Z,150
2018-09-20T08:08:44.572Z,150
2018-09-20T08:09:54.430Z,150
2018-09-20T08:11:04.582Z,150
2018-09-20T08:12:14.724Z,150
2018-09-20T08:13:24.552Z,155
2018-09-20T08:14:34.662Z,155
2018-09-20T08:15:44.755Z,155
2018-09-20T08:16:54.816Z,155
2018-09-20T08:18:04.638Z,155
2018-09-20T08:19:14.826Z,155
2018-09-20T08:20:24.912Z,155
2018-09-20T08:21:35.372Z,160
2018-09-20T08:22:45.478Z,155
2018-09-20T08:23:55.308Z,155
2018-09-20T08:25:05.690Z,155
2018-09-20T08:26:15.531Z,155
2018-09-20T08:27:25.599Z,155
2018-09-20T08:28:35.793Z,155
2018-09-20T08:29:45.882Z,160
2018-09-20T08:30:55.958Z,160
2018-09-20T08:32:06.037Z,160
2018-09-20T08:33:16.133Z,160
2018-09-20T08:34:25.973Z,160
2018-09-20T08:35:36.071Z,160
2018-09-20T08:36:46.185Z,160
2018-09-20T08:37:56.731Z,160
2018-09-20T08:39:06.806Z,160
2018-09-20T08:40:16.942Z,160
2018-09-20T08:41:27.033Z,160
2018-09-20T08:42:36.848Z,160
2018-09-20T08:43:46.696Z,160
2018-09-20T08:44:56.794Z,165
2018-09-20T08:46:06.888Z,165
2018-09-20T08:47:16.970Z,165
2018-09-20T08:48:26.792Z,165
2018-09-20T08:49:36.909Z,165
2018-09-20T08:50:47.010Z,165
2018-09-20T08:51:57.148Z,165
2018-09-20T08:53:06.966Z,165
2018-09-20T08:54:16.261Z,165
2018-09-20T08:55:26.077Z,165
2018-09-20T08:56:35.905Z,165
2018-09-20T08:57:45.517Z,165
2018-09-20T08:58:55.324Z,170
2018-09-20T09:00:04.892Z,170
2018-09-20T09:01:14.985Z,170
2018-09-20T09:02:25.143Z,170
2018-09-20T09:03:35.294Z,170
2018-09-20T09:04:45.716Z,170
2018-09-20T09:05:55.527Z,170
2018-09-20T09:07:05.762Z,170
2018-09-20T09:08:15.898Z,170
2018-09-20T09:09:25.988Z,170
2018-09-20T09:10:36.070Z,170
2018-09-20T09:11:46.191Z,170
2018-09-20T09:12:56.282Z,170
2018-09-20T09:14:06.413Z,170
2018-09-20T09:15:16.556Z,170
2018-09-20T09:16:26.630Z,170
2018-09-20T09:17:36.452Z,170
2018-09-20T09:18:46.046Z,170
2018-09-20T09:19:56.135Z,170
2018-09-20T09:21:05.750Z,170
2018-09-20T09:22:15.831Z,170
2018-09-20T09:23:38.662Z,170
2018-09-20T09:24:48.497Z,170
2018-09-20T09:25:58.359Z,170
2018-09-20T09:27:08.444Z,170
2018-09-20T09:28:18.535Z,170
2018-09-20T09:29:28.624Z,170
2018-09-20T09:30:38.435Z,170
2018-09-20T09:31:48.676Z,175
2018-09-20T09:32:58.753Z,175
2018-09-20T09:34:09.080Z,175
2018-09-20T09:35:19.180Z,175
2018-09-20T09:36:28.999Z,175
2018-09-20T09:37:38.872Z,175
2018-09-20T09:38:48.967Z,175
2018-09-20T09:39:58.530Z,175
2018-09-20T09:41:08.344Z,175
2018-09-20T09:42:18.507Z,175
2018-09-20T09:43:28.647Z,175
2018-09-20T09:44:38.738Z,175
2018-09-20T09:45:48.817Z,175
2018-09-20T09:46:58.634Z,175
2018-09-20T09:48:08.882Z,175
2018-09-20T09:49:19.002Z,175
2018-09-20T09:50:28.601Z,175
2018-09-20T09:51:38.409Z,175
2018-09-20T09:52:48.525Z,175
2018-09-20T09:53:58.615Z,175
2018-09-20T09:55:08.177Z,175
2018-09-20T09:56:18.266Z,175
2018-09-20T09:57:28.079Z,175
2018-09-20T09:58:38.185Z,175
2018-09-20T09:59:48.555Z,175
2018-09-20T10:00:58.710Z,175
2018-09-20T10:02:10.254Z,175
2018-09-20T10:03:20.332Z,175
2018-09-20T10:04:30.426Z,180
2018-09-20T10:05:40.511Z,175
2018-09-20T10:06:50.829Z,185
2018-09-20T10:08:03.086Z,185
2018-09-20T10:09:12.651Z,180
2018-09-20T10:10:22.513Z,185
2018-09-20T10:11:32.341Z,185
2018-09-20T10:12:42.174Z,185
2018-09-20T10:13:52.769Z,185
2018-09-20T10:15:02.934Z,180
2018-09-20T10:16:12.748Z,180
2018-09-20T10:17:22.826Z,180
2018-09-20T10:18:32.687Z,185
2018-09-20T10:19:42.535Z,180
2018-09-20T10:20:52.631Z,185
2018-09-20T10:22:03.730Z,180
2018-09-20T10:23:13.814Z,180
2018-09-20T10:24:23.385Z,180
2018-09-20T10:25:33.473Z,180
2018-09-20T10:26:43.574Z,180
2018-09-20T10:27:53.666Z,185
2018-09-20T10:29:05.762Z,180
2018-09-20T10:30:15.940Z,180
2018-09-20T10:31:25.991Z,180
2018-09-20T10:32:36.153Z,180
2018-09-20T10:33:46.363Z,180
2018-09-20T10:34:56.457Z,180
2018-09-20T10:36:06.276Z,180
2018-09-20T10:37:16.361Z,180
2018-09-20T10:38:26.482Z,180
2018-09-20T10:39:36.569Z,180
2018-09-20T10:40:46.636Z,180
2018-09-20T10:41:56.778Z,180
2018-09-20T10:43:06.607Z,180
2018-09-20T10:44:16.689Z,180
2018-09-20T10:45:26.775Z,180
2018-09-20T10:46:36.879Z,180
2018-09-20T10:47:46.969Z,180
2018-09-20T10:48:56.811Z,180
2018-09-20T10:50:08.338Z,180
2018-09-20T10:51:18.426Z,185
2018-09-20T10:52:28.274Z,185
2018-09-20T10:53:38.408Z,185
2018-09-20T10:54:48.467Z,185
2018-09-20T10:55:58.560Z,185
2018-09-20T10:57:08.653Z,185
2018-09-20T10:58:18.743Z,185
2018-09-20T10:59:28.843Z,185
2018-09-20T11:00:38.663Z,185
2018-09-20T11:01:48.740Z,185
2018-09-20T11:02:58.745Z,190
2018-09-20T11:04:08.652Z,190
2018-09-20T11:05:18.486Z,185
2018-09-20T11:06:28.596Z,185
2018-09-20T11:07:38.665Z,185
2018-09-20T11:08:48.884Z,185
2018-09-20T11:09:58.964Z,185
2018-09-20T11:11:09.198Z,185
2018-09-20T11:12:19.351Z,185
2018-09-20T11:13:29.432Z,185
2018-09-20T11:14:39.563Z,185
2018-09-20T11:15:49.642Z,190
2018-09-20T11:16:59.721Z,190
2018-09-20T11:18:11.061Z,190
2018-09-20T11:19:21.146Z,190
2018-09-20T11:20:31.295Z,195
2018-09-20T11:21:41.376Z,195
2018-09-20T11:22:51.221Z,195
2018-09-20T11:24:01.308Z,195
2018-09-20T11:25:11.132Z,195
2018-09-20T11:26:21.249Z,195
2018-09-20T11:27:31.348Z,195
2018-09-20T11:28:40.911Z,195
2018-09-20T11:29:50.734Z,195
2018-09-20T11:31:00.827Z,200
2018-09-20T11:32:10.712Z,195
2018-09-20T11:33:20.541Z,195
2018-09-20T11:34:30.365Z,200
2018-09-20T11:35:40.439Z,200
2018-09-20T11:36:50.267Z,200
2018-09-20T11:38:01.714Z,200
2018-09-20T11:39:11.366Z,200
2018-09-20T11:40:21.448Z,200
2018-09-20T11:41:31.287Z,200
2018-09-20T11:42:41.384Z,200
2018-09-20T11:43:51.478Z,200
2018-09-20T11:45:01.886Z,200
2018-09-20T11:46:13.659Z,200
2018-09-20T11:47:23.779Z,200
2018-09-20T11:48:33.872Z,200
2018-09-20T11:49:44.002Z,200
2018-09-20T11:50:54.109Z,200
2018-09-20T11:52:04.209Z,200
2018-09-20T11:53:14.412Z,200
2018-09-20T11:54:24.337Z,200
2018-09-20T11:55:34.165Z,200
2018-09-20T11:56:44.275Z,200
2018-09-20T11:57:54.113Z,200
2018-09-20T11:59:05.763Z,205
2018-09-20T12:00:15.598Z,205
2018-09-20T12:01:26.251Z,205
2018-09-20T12:02:36.191Z,205
2018-09-20T12:03:45.786Z,205
2018-09-20T12:04:55.653Z,205
2018-09-20T12:06:06.192Z,200
2018-09-20T12:07:16.272Z,205
2018-09-20T12:08:26.364Z,205
2018-09-20T12:09:36.458Z,205
2018-09-20T12:10:46.539Z,205
2018-09-20T12:11:56.637Z,205
2018-09-20T12:13:06.909Z,205
2018-09-20T12:14:16.728Z,205
2018-09-20T12:15:26.320Z,205
2018-09-20T12:16:36.540Z,205
2018-09-20T12:17:46.398Z,200
2018-09-20T12:18:56.289Z,200
2018-09-20T12:20:06.412Z,200
2018-09-20T12:21:16.551Z,200
2018-09-20T12:22:26.696Z,200
2018-09-20T12:23:36.788Z,200
2018-09-20T12:24:46.615Z,200
2018-09-20T12:25:57.069Z,200
2018-09-20T12:27:07.040Z,200
2018-09-20T12:28:17.174Z,200
2018-09-20T12:29:27.289Z,195
2018-09-20T12:30:37.388Z,195
2018-09-20T12:31:47.431Z,195
2018-09-20T12:32:57.920Z,195
2018-09-20T12:34:08.112Z,195
2018-09-20T12:35:18.449Z,190
2018-09-20T12:36:28.618Z,190
2018-09-20T12:37:38.472Z,190
2018-09-20T12:38:48.961Z,190
2018-09-20T12:39:58.812Z,190
2018-09-20T12:41:08.917Z,185
2018-09-20T12:42:18.989Z,185
2018-09-20T12:43:29.263Z,185
2018-09-20T12:44:39.374Z,185
2018-09-20T12:45:49.250Z,185
2018-09-20T12:46:59.365Z,185
2018-09-20T12:48:10.338Z,185
2018-09-20T12:49:20.269Z,185
2018-09-20T12:50:30.356Z,180
2018-09-20T12:51:40.458Z,180
2018-09-20T12:52:50.556Z,180
2018-09-20T12:54:00.696Z,180
2018-09-20T12:55:11.002Z,180
2018-09-20T12:56:20.864Z,175
2018-09-20T12:57:31.003Z,180
2018-09-20T12:58:41.088Z,180
2018-09-20T12:59:51.177Z,180
2018-09-20T13:01:01.276Z,180
2018-09-20T13:02:11.677Z,175
2018-09-20T13:03:21.833Z,180
2018-09-20T13:04:31.917Z,175
2018-09-20T13:05:42.027Z,175
2018-09-20T13:06:52.138Z,175
2018-09-20T13:08:03.306Z,175
2018-09-20T13:09:13.534Z,175
2018-09-20T13:10:23.633Z,175
2018-09-20T13:11:33.722Z,175
2018-09-20T13:12:43.874Z,175
2018-09-20T13:13:53.957Z,175
2018-09-20T13:15:04.045Z,175
2018-09-20T13:16:14.126Z,175
2018-09-20T13:17:24.223Z,170
2018-09-20T13:18:34.065Z,175
2018-09-20T13:19:44.158Z,170
2018-09-20T13:20:54.243Z,170
2018-09-20T13:22:04.081Z,170
2018-09-20T13:23:14.196Z,170
2018-09-20T13:24:24.295Z,170
2018-09-20T13:25:34.685Z,170
2018-09-20T13:26:44.808Z,170
2018-09-20T13:27:54.639Z,170
2018-09-20T13:29:04.744Z,170
2018-09-20T13:30:14.824Z,170
2018-09-20T13:31:24.667Z,165
2018-09-20T13:32:34.766Z,165
2018-09-20T13:33:44.866Z,165
2018-09-20T13:34:54.976Z,165
2018-09-20T13:36:07.462Z,160
2018-09-20T13:37:17.864Z,160
2018-09-20T13:38:27.983Z,160
2018-09-20T13:39:37.818Z,160
2018-09-20T13:40:47.941Z,160
2018-09-20T13:41:58.984Z,160
2018-09-20T13:43:09.799Z,160
2018-09-20T13:44:20.151Z,155
2018-09-20T13:45:30.035Z,155
2018-09-20T13:46:40.464Z,155
2018-09-20T13:47:52.046Z,155
2018-09-20T13:49:02.576Z,155
2018-09-20T13:50:13.238Z,155
2018-09-20T13:51:23.737Z,155
2018-09-20T13:52:34.367Z,155
2018-09-20T13:53:44.886Z,155
2018-09-20T13:54:54.863Z,150
2018-09-20T13:56:04.918Z,150
2018-09-20T13:57:14.765Z,150
2018-09-20T13:58:24.909Z,155
2018-09-20T13:59:35.069Z,150
2018-09-20T14:00:44.903Z,150
2018-09-20T14:01:55.012Z,145
2018-09-20T14:03:05.116Z,150
2018-09-20T14:04:14.927Z,145
2018-09-20T14:05:25.023Z,145
2018-09-20T14:06:35.126Z,145
2018-09-20T14:07:45.335Z,145
2018-09-20T14:08:55.153Z,145
2018-09-20T14:10:08.741Z,145
2018-09-20T14:11:18.662Z,150
2018-09-20T14:12:28.795Z,145
2018-09-20T14:13:38.891Z,145
2018-09-20T14:14:48.713Z,150
2018-09-20T14:15:58.545Z,145
2018-09-20T14:17:09.800Z,140
2018-09-20T14:18:19.925Z,140
2018-09-20T14:19:30.037Z,140
2018-09-20T14:20:40.114Z,140
2018-09-20T14:21:49.934Z,140
2018-09-20T14:23:00.032Z,145
2018-09-20T14:24:10.726Z,135
2018-09-20T14:25:20.846Z,135
2018-09-20T14:26:30.952Z,135
2018-09-20T14:27:41.075Z,135
2018-09-20T14:28:51.172Z,135
2018-09-20T14:30:01.327Z,135
2018-09-20T14:31:10.886Z,130
2018-09-20T14:32:20.745Z,130
2018-09-20T14:33:30.855Z,130
2018-09-20T14:34:40.927Z,130
2018-09-20T14:35:51.093Z,130
2018-09-20T14:37:00.916Z,130
2018-09-20T14:38:11.025Z,125
2018-09-20T14:39:20.584Z,125
2018-09-20T14:40:30.674Z,125
2018-09-20T14:41:40.557Z,125
2018-09-20T14:42:50.647Z,125
2018-09-20T14:44:01.497Z,120
2018-09-20T14:45:11.614Z,120
2018-09-20T14:46:21.462Z,120
2018-09-20T14:47:31.338Z,120
2018-09-20T14:48:41.422Z,120
2018-09-20T14:49:51.484Z,115
2018-09-20T14:51:01.320Z,115
2018-09-20T14:52:11.439Z,115
2018-09-20T14:53:21.273Z,115
2018-09-20T14:54:31.367Z,110
2018-09-20T14:55:41.508Z,110
2018-09-20T14:56:51.407Z,110
2018-09-20T14:58:01.503Z,110
2018-09-20T14:59:11.453Z,105
2018-09-20T15:00:21.569Z,105
2018-09-20T15:01:31.135Z,105
2018-09-20T15:02:40.970Z,105
2018-09-20T15:03:50.802Z,105
2018-09-20T15:05:00.930Z,100
2018-09-20T15:06:11.560Z,100
2018-09-20T15:07:21.400Z,100
2018-09-20T15:08:31.517Z,100
2018-09-20T15:09:41.624Z,100
2018-09-20T15:10:51.765Z,95
2018-09-20T15:12:01.587Z,95
2018-09-20T15:13:11.674Z,95
2018-09-20T15:14:21.498Z,95
2018-09-20T15:15:31.773Z,95
2018-09-20T15:16:41.605Z,95
2018-09-20T15:17:51.692Z,95
2018-09-20T15:19:01.812Z,95
2018-09-20T15:20:11.926Z,95
2018-09-20T15:21:22.014Z,90
2018-09-20T15:22:32.166Z,90
2018-09-20T15:23:42.006Z,90
2018-09-20T15:24:52.311Z,90
2018-09-20T15:26:02.422Z,85
2018-09-20T15:27:12.506Z,85
2018-09-20T15:28:22.381Z,85
2018-09-20T15:29:32.488Z,85
2018-09-20T15:30:42.604Z,80
2018-09-20T15:31:52.697Z,80
2018-09-20T15:33:05.537Z,80
2018-09-20T15:34:15.156Z,80
2018-09-20T15:35:25.031Z,80
2018-09-20T15:36:35.362Z,75
2018-09-20T15:37:45.259Z,75
2018-09-20T15:38:55.098Z,75
2018-09-20T15:40:05.964Z,75
2018-09-20T15:41:16.077Z,70
2018-09-20T15:42:25.897Z,70
2018-09-20T15:43:35.997Z,70
2018-09-20T15:44:46.089Z,65
2018-09-20T15:45:55.924Z,65
2018-09-20T15:47:06.415Z,65
2018-09-20T15:48:16.261Z,65
2018-09-20T15:49:26.358Z,60
2018-09-20T15:50:36.440Z,60
2018-09-20T15:51:46.556Z,60
2018-09-20T15:52:56.654Z,55
2018-09-20T15:54:06.790Z,55
2018-09-20T15:55:16.665Z,55
2018-09-20T15:56:26.760Z,55
2018-09-20T15:57:36.575Z,55
2018-09-20T15:58:46.681Z,50
2018-09-20T15:59:56.772Z,55
2018-09-20T16:01:06.872Z,55
2018-09-20T16:02:16.984Z,55
2018-09-20T16:03:27.111Z,50
2018-09-20T16:04:37.210Z,50
2018-09-20T16:05:47.129Z,50
2018-09-20T16:06:57.226Z,45
2018-09-20T16:08:06.941Z,45
2018-09-20T16:09:17.027Z,45
2018-09-20T16:10:26.851Z,45
2018-09-20T16:11:36.959Z,40
2018-09-20T16:12:47.216Z,40
2018-09-20T16:13:56.776Z,40
2018-09-20T16:15:07.021Z,40
2018-09-20T16:16:17.192Z,35
2018-09-20T16:17:27.381Z,35
2018-09-20T16:18:37.480Z,35
2018-09-20T16:19:47.574Z,35
2018-09-20T16:20:57.711Z,35
2018-09-20T16:22:07.785Z,30
2018-09-20T16:23:17.882Z,30
2018-09-20T16:24:27.989Z,30
2018-09-20T16:25:37.558Z,30
2018-09-20T16:26:47.643Z,25
2018-09-20T16:27:57.749Z,25
2018-09-20T16:29:09.219Z,25
2018-09-20T16:30:19.320Z,25
2018-09-20T16:31:29.509Z,20
2018-09-20T16:32:39.630Z,20
2018-09-20T16:33:49.729Z,20
2018-09-20T16:34:59.889Z,20
2018-09-20T16:36:09.986Z,20
2018-09-20T16:37:20.077Z,15
2018-09-20T16:38:30.474Z,15
2018-09-20T16:39:40.574Z,15
2018-09-20T16:40:50.700Z,15
2018-09-20T16:42:00.787Z,10
2018-09-20T16:43:10.886Z,10
2018-09-20T16:44:21.120Z,10
2018-09-20T16:45:31.225Z,10
2018-09-20T16:46:41.316Z,10
2018-09-20T16:47:51.403Z,10
2018-09-20T16:49:01.491Z,5
2018-09-20T16:50:11.629Z,5
2018-09-20T16:51:21.709Z,5
2018-09-20T16:52:31.569Z,5
2018-09-20T16:53:41.665Z,5
2018-09-20T16:54:51.765Z,5
2018-09-20T16:56:01.698Z,5
2018-09-20T16:57:11.806Z,0
2018-09-20T16:58:21.938Z,0
2018-09-20T16:59:32.060Z,0
2018-09-20T17:00:41.917Z,0
2018-09-20T17:01:52.085Z,0